createdAt,value
2022-11-01T00:00:55.218Z,22.35
2022-11-01T00:03:23.430Z,22.73
2022-11-01T00:05:49.772Z,21.63
2022-11-01T00:08:16.167Z,18.98
2022-11-01T00:10:42.491Z,20.40
2022-11-01T00:13:08.888Z,19.17
2022-11-01T00:15:35.235Z,24.48
2022-11-01T00:18:01.559Z,17.58
2022-11-01T00:20:28.071Z,22.20
2022-11-01T00:22:54.403Z,19.23
2022-11-01T00:25:20.733Z,21.10
2022-11-01T00:27:47.112Z,20.63
2022-11-01T00:30:13.478Z,23.98
2022-11-01T00:32:39.878Z,18.92
2022-11-01T00:35:06.340Z,23.80
2022-11-01T00:37:32.663Z,22.35
2022-11-01T00:39:58.991Z,21.52
2022-11-01T00:42:25.375Z,22.10
2022-11-01T00:44:51.772Z,19.42
2022-11-01T00:47:18.093Z,22.52
2022-11-01T00:49:44.433Z,18.85
2022-11-01T00:52:10.806Z,19.80
2022-11-01T00:54:37.234Z,21.80
2022-11-01T00:57:03.554Z,20.67
2022-11-01T00:59:29.991Z,25.25
2022-11-01T01:01:56.421Z,22.13
2022-11-01T01:04:22.901Z,24.20
2022-11-01T01:06:49.443Z,20.52
2022-11-01T01:09:16.140Z,20.38
2022-11-01T01:11:42.522Z,23.30
2022-11-01T01:14:09.415Z,25.40
2022-11-01T01:16:35.858Z,20.67
2022-11-01T01:19:02.322Z,19.27
2022-11-01T01:21:28.652Z,23.50
2022-11-01T01:23:55.032Z,21.75
2022-11-01T01:26:21.479Z,19.45
2022-11-01T01:28:47.863Z,26.05
2022-11-01T01:31:14.333Z,18.83
2022-11-01T01:33:40.877Z,21.55
2022-11-01T01:36:07.516Z,24.85
2022-11-01T01:38:33.948Z,24.15
2022-11-01T01:41:20.257Z,18.88
2022-11-01T01:43:47.032Z,22.88
2022-11-01T01:46:13.396Z,18.88
2022-11-01T01:48:41.320Z,20.77
2022-11-01T01:51:18.855Z,25.58
2022-11-01T01:53:46.945Z,17.98
2022-11-01T01:56:18.479Z,20.83
2022-11-01T01:58:58.826Z,18.92
2022-11-01T02:01:26.406Z,16.45
2022-11-01T02:03:52.862Z,17.23
2022-11-01T02:06:21.791Z,18.08
2022-11-01T02:08:49.892Z,16.05
2022-11-01T02:11:16.717Z,19.00
2022-11-01T02:13:43.790Z,19.67
2022-11-01T02:16:24.446Z,19.38
2022-11-01T02:19:03.020Z,17.70
2022-11-01T02:21:48.194Z,19.13
2022-11-01T02:24:30.010Z,17.40
2022-11-01T02:26:56.449Z,18.05
2022-11-01T02:29:41.586Z,16.15
2022-11-01T02:32:22.570Z,19.27
2022-11-01T02:35:07.827Z,20.70
2022-11-01T02:37:39.816Z,14.97
2022-11-01T02:40:08.220Z,15.32
2022-11-01T02:42:42.229Z,18.23
2022-11-01T02:45:10.845Z,16.70
2022-11-01T02:47:37.614Z,20.17
2022-11-01T02:50:06.223Z,16.27
2022-11-01T02:52:33.696Z,18.20
2022-11-01T02:55:01.185Z,15.18
2022-11-01T02:57:27.589Z,16.15
2022-11-01T02:59:53.945Z,15.10
2022-11-01T03:02:41.184Z,23.35
2022-11-01T03:05:14.463Z,21.08
2022-11-01T03:07:42.543Z,15.48
2022-11-01T03:10:09.241Z,18.15
2022-11-01T03:12:39.587Z,16.50
2022-11-01T03:15:06.022Z,15.90
2022-11-01T03:17:41.464Z,16.48
2022-11-01T03:20:08.121Z,21.80
2022-11-01T03:22:55.308Z,17.23
2022-11-01T03:25:40.071Z,15.70
2022-11-01T03:28:06.359Z,18.60
2022-11-01T03:30:33.841Z,17.10
2022-11-01T03:33:00.658Z,14.80
2022-11-01T03:35:41.407Z,16.55
2022-11-01T03:38:10.888Z,19.63
2022-11-01T03:40:39.416Z,17.88
2022-11-01T03:43:06.727Z,18.98
2022-11-01T03:45:35.306Z,21.00
2022-11-01T03:48:01.972Z,12.75
2022-11-01T03:50:28.826Z,17.02
2022-11-01T03:52:55.632Z,16.00
2022-11-01T03:55:22.411Z,24.02
2022-11-01T03:57:48.870Z,16.73
2022-11-01T04:00:16.679Z,17.42
2022-11-01T04:02:43.302Z,16.48
2022-11-01T04:05:10.593Z,13.85
2022-11-01T04:07:37.257Z,15.27
2022-11-01T04:10:03.944Z,18.02
2022-11-01T04:12:30.421Z,14.65
2022-11-01T04:15:15.435Z,16.38
2022-11-01T04:18:00.179Z,15.60
2022-11-01T04:20:35.781Z,19.92
2022-11-01T04:23:03.109Z,21.42
2022-11-01T04:25:29.787Z,19.75
2022-11-01T04:27:58.816Z,15.32
2022-11-01T04:30:26.164Z,13.52
2022-11-01T04:32:52.652Z,24.10
2022-11-01T04:35:19.354Z,15.70
2022-11-01T04:37:45.826Z,12.63
2022-11-01T04:40:15.896Z,22.77
2022-11-01T04:42:42.210Z,22.65
2022-11-01T04:45:09.115Z,19.83
2022-11-01T04:47:35.522Z,25.60
2022-11-01T04:50:01.812Z,22.95
2022-11-01T04:52:28.206Z,22.23
2022-11-01T04:54:54.493Z,20.13
2022-11-01T04:57:24.307Z,27.05
2022-11-01T04:59:51.512Z,23.52
2022-11-01T05:02:18.166Z,20.60
2022-11-01T05:04:44.597Z,27.00
2022-11-01T05:07:11.130Z,19.98
2022-11-01T05:09:37.451Z,18.85
2022-11-01T05:12:03.914Z,19.63
2022-11-01T05:14:30.459Z,18.10
2022-11-01T05:16:59.447Z,25.90
2022-11-01T05:19:25.763Z,25.88
2022-11-01T05:21:52.525Z,20.42
2022-11-01T05:24:18.836Z,19.05
2022-11-01T05:26:45.124Z,29.75
2022-11-01T05:29:24.569Z,17.75
2022-11-01T05:31:58.247Z,17.27
2022-11-01T05:34:24.610Z,19.75
2022-11-01T05:36:50.963Z,20.65
2022-11-01T05:39:17.278Z,17.10
2022-11-01T05:41:43.685Z,26.38
2022-11-01T05:44:09.979Z,24.05
2022-11-01T05:46:38.698Z,23.38
2022-11-01T05:49:05.070Z,20.05
2022-11-01T05:51:31.489Z,25.88
2022-11-01T05:53:57.900Z,16.73
2022-11-01T05:56:24.280Z,19.00
2022-11-01T05:58:50.587Z,16.17
2022-11-01T06:01:19.183Z,21.42
2022-11-01T06:03:48.846Z,17.75
2022-11-01T06:06:15.275Z,17.05
2022-11-01T06:08:41.608Z,14.10
2022-11-01T06:11:08.054Z,20.98
2022-11-01T06:13:34.430Z,19.33
2022-11-01T06:16:01.679Z,24.00
2022-11-01T06:18:28.309Z,16.63
2022-11-01T06:20:54.791Z,24.65
2022-11-01T06:23:21.219Z,23.15
2022-11-01T06:25:47.527Z,16.35
2022-11-01T06:28:14.361Z,18.25
2022-11-01T06:30:40.788Z,24.77
2022-11-01T06:33:09.403Z,25.92
2022-11-01T06:35:35.807Z,20.30
2022-11-01T06:38:06.856Z,14.95
2022-11-01T06:40:34.118Z,18.45
2022-11-01T06:43:01.754Z,11.77
2022-11-01T06:45:28.966Z,11.55
2022-11-01T06:47:55.387Z,20.80
2022-11-01T06:50:21.924Z,15.10
2022-11-01T06:52:48.486Z,10.57
2022-11-01T06:55:15.207Z,17.55
2022-11-01T06:57:41.819Z,15.70
2022-11-01T07:00:09.353Z,12.52
2022-11-01T07:02:35.961Z,11.88
2022-11-01T07:05:02.375Z,13.18
2022-11-01T07:07:28.768Z,15.38
2022-11-01T07:09:55.071Z,11.77
2022-11-01T07:12:21.458Z,13.30
2022-11-01T07:14:47.761Z,14.98
2022-11-01T07:17:14.067Z,14.07
2022-11-01T07:19:40.441Z,13.82
2022-11-01T07:22:06.780Z,10.30
2022-11-01T07:24:33.178Z,12.40
2022-11-01T07:26:59.508Z,16.77
2022-11-01T07:29:25.821Z,16.00
2022-11-01T07:31:52.155Z,13.32
2022-11-01T07:34:18.456Z,15.65
2022-11-01T07:36:44.801Z,16.95
2022-11-01T07:39:11.149Z,11.45
2022-11-01T07:41:37.492Z,12.77
2022-11-01T07:44:03.897Z,19.38
2022-11-01T07:46:31.477Z,14.20
2022-11-01T07:49:00.360Z,20.25
2022-11-01T07:51:26.655Z,14.95
2022-11-01T07:53:53.067Z,17.25
2022-11-01T07:56:21.641Z,19.95
2022-11-01T07:58:47.951Z,21.02
2022-11-01T08:01:14.873Z,12.57
2022-11-01T08:03:41.251Z,15.02
2022-11-01T08:06:07.804Z,15.43
2022-11-01T08:08:34.201Z,16.00
2022-11-01T08:11:01.576Z,18.65
2022-11-01T08:13:28.378Z,16.83
2022-11-01T08:15:54.832Z,15.65
2022-11-01T08:18:22.524Z,16.02
2022-11-01T08:20:49.396Z,16.50
2022-11-01T08:23:16.070Z,13.85
2022-11-01T08:25:42.397Z,16.50
2022-11-01T08:28:11.582Z,16.17
2022-11-01T08:30:38.620Z,14.25
2022-11-01T08:33:05.386Z,19.77
2022-11-01T08:35:32.692Z,14.05
2022-11-01T08:37:59.212Z,17.88
2022-11-01T08:40:26.042Z,15.68
2022-11-01T08:42:52.752Z,19.27
2022-11-01T08:45:19.128Z,17.27
2022-11-01T08:47:45.571Z,12.90
2022-11-01T08:50:13.134Z,11.88
2022-11-01T08:52:40.103Z,17.40
2022-11-01T08:55:07.372Z,16.02
2022-11-01T08:57:33.857Z,11.07
2022-11-01T09:00:00.195Z,16.60
2022-11-01T09:02:26.882Z,10.38
2022-11-01T09:04:53.324Z,11.05
2022-11-01T09:07:20.349Z,16.80
2022-11-01T09:09:46.702Z,11.25
2022-11-01T09:12:14.688Z,14.85
2022-11-01T09:14:41.551Z,12.23
2022-11-01T09:17:07.918Z,10.60
2022-11-01T09:19:34.508Z,13.85
2022-11-01T09:22:00.822Z,14.15
2022-11-01T09:24:27.150Z,15.75
2022-11-01T09:26:53.668Z,15.48
2022-11-01T09:29:21.438Z,11.82
2022-11-01T09:31:50.987Z,13.07
2022-11-01T09:34:17.367Z,11.35
2022-11-01T09:36:43.763Z,12.13
2022-11-01T09:39:10.341Z,12.82
2022-11-01T09:41:45.388Z,13.10
2022-11-01T09:44:14.822Z,12.30
2022-11-01T09:46:44.601Z,13.75
2022-11-01T09:49:12.949Z,12.98
2022-11-01T09:51:39.390Z,13.57
2022-11-01T09:54:08.330Z,15.73
2022-11-01T09:56:41.184Z,9.65
2022-11-01T09:59:29.587Z,12.38
2022-11-01T10:02:15.379Z,9.30
2022-11-01T10:04:53.565Z,8.82
2022-11-01T10:07:39.763Z,9.98
2022-11-01T10:10:12.336Z,16.52
2022-11-01T10:12:45.197Z,19.05
2022-11-01T10:15:11.553Z,10.52
2022-11-01T10:17:52.688Z,16.52
2022-11-01T10:20:21.440Z,8.52
2022-11-01T10:22:49.418Z,12.32
2022-11-01T10:25:27.014Z,10.00
2022-11-01T10:27:56.241Z,14.00
2022-11-01T10:30:22.676Z,11.80
2022-11-01T10:33:02.265Z,12.07
2022-11-01T10:35:30.618Z,12.32
2022-11-01T10:38:25.054Z,15.52
2022-11-01T10:40:56.533Z,10.70
2022-11-01T10:43:23.408Z,13.02
2022-11-01T10:45:51.591Z,10.35
2022-11-01T10:48:34.695Z,11.65
2022-11-01T10:51:03.760Z,9.77
2022-11-01T10:53:32.217Z,7.95
2022-11-01T10:56:01.772Z,11.75
2022-11-01T10:58:42.681Z,8.48
2022-11-01T11:01:11.540Z,12.13
2022-11-01T11:03:39.545Z,10.25
2022-11-01T11:06:09.058Z,8.27
2022-11-01T11:08:38.434Z,8.25
2022-11-01T11:11:07.729Z,10.80
2022-11-01T11:13:34.342Z,8.70
2022-11-01T11:16:04.313Z,9.73
2022-11-01T11:18:36.620Z,10.45
2022-11-01T11:21:05.689Z,10.70
2022-11-01T11:23:36.575Z,8.60
2022-11-01T11:26:04.705Z,9.13
2022-11-01T11:28:34.401Z,8.27
2022-11-01T11:31:16.242Z,9.50
2022-11-01T11:33:48.296Z,13.15
2022-11-01T11:36:14.877Z,12.65
2022-11-01T11:38:43.077Z,7.30
2022-11-01T11:41:10.518Z,8.50
2022-11-01T11:43:40.984Z,11.32
2022-11-01T11:46:10.366Z,9.98
2022-11-01T11:48:47.004Z,12.27
2022-11-01T11:51:13.527Z,11.13
2022-11-01T11:53:40.417Z,9.27
2022-11-01T11:56:08.272Z,6.85
2022-11-01T11:58:40.628Z,11.50
2022-11-01T12:01:07.846Z,13.18
2022-11-01T12:03:43.505Z,10.93
2022-11-01T12:06:10.048Z,10.40
2022-11-01T12:08:36.935Z,5.00
2022-11-01T12:11:03.725Z,8.18
2022-11-01T12:13:41.211Z,7.00
2022-11-01T12:16:16.347Z,8.32
2022-11-01T12:19:02.085Z,8.43
2022-11-01T12:21:33.515Z,6.75
2022-11-01T12:24:02.652Z,7.88
2022-11-01T12:26:30.690Z,7.53
2022-11-01T12:29:00.610Z,9.50
2022-11-01T12:31:31.236Z,5.80
2022-11-01T12:34:01.124Z,6.68
2022-11-01T12:36:33.697Z,7.35
2022-11-01T12:39:12.551Z,10.10
2022-11-01T12:41:43.928Z,7.68
2022-11-01T12:44:13.248Z,7.82
2022-11-01T12:46:55.579Z,4.30
2022-11-01T12:49:31.093Z,11.32
2022-11-01T12:52:02.182Z,6.72
2022-11-01T12:54:32.493Z,4.22
2022-11-01T12:56:59.155Z,7.93
2022-11-01T12:59:28.185Z,5.20
2022-11-01T13:01:59.573Z,6.68
2022-11-01T13:04:32.037Z,11.82
2022-11-01T13:07:18.242Z,9.25
2022-11-01T13:14:53.993Z,5.55
2022-11-01T13:17:23.204Z,8.60
2022-11-01T13:19:57.305Z,6.93
2022-11-01T13:22:33.105Z,8.15
2022-11-01T13:25:22.703Z,8.73
2022-11-01T13:27:56.435Z,9.15
2022-11-01T13:30:22.837Z,9.27
2022-11-01T13:33:01.847Z,13.40
2022-11-01T13:35:29.677Z,11.25
2022-11-01T13:38:17.559Z,10.52
2022-11-01T13:40:50.127Z,9.75
2022-11-01T13:43:20.692Z,9.40
2022-11-01T13:45:59.212Z,9.52
2022-11-01T13:48:44.194Z,8.52
2022-11-01T13:51:16.798Z,7.47
2022-11-01T13:53:58.658Z,8.10
2022-11-01T13:56:34.250Z,8.30
2022-11-01T13:59:01.010Z,9.25
2022-11-01T14:01:29.890Z,6.70
2022-11-01T14:04:12.205Z,8.80
2022-11-01T14:06:40.263Z,6.78
2022-11-01T14:09:25.754Z,5.97
2022-11-01T14:11:58.380Z,7.47
2022-11-01T14:14:33.248Z,6.88
2022-11-01T14:17:19.697Z,8.67
2022-11-01T14:20:08.414Z,8.25
2022-11-01T14:22:35.308Z,9.00
2022-11-01T14:25:02.972Z,7.70
2022-11-01T14:27:29.785Z,7.85
2022-11-01T14:29:56.510Z,10.18
2022-11-01T14:32:24.462Z,10.52
2022-11-01T14:35:14.099Z,7.95
2022-11-01T14:37:47.060Z,7.13
2022-11-01T14:40:26.014Z,8.15
2022-11-01T14:42:53.528Z,7.78
2022-11-01T14:45:19.892Z,6.57
2022-11-01T14:47:47.160Z,10.13
2022-11-01T14:50:22.246Z,7.05
2022-11-01T14:52:56.595Z,6.65
2022-11-01T14:55:31.498Z,6.45
2022-11-01T14:58:18.947Z,7.27
2022-11-01T15:00:46.059Z,5.50
2022-11-01T15:03:16.311Z,4.78
2022-11-01T15:05:43.866Z,7.80
2022-11-01T15:08:39.741Z,7.38
2022-11-01T15:11:06.869Z,12.20
2022-11-01T15:13:36.788Z,7.93
2022-11-01T15:16:14.295Z,10.65
2022-11-01T15:18:46.830Z,13.43
2022-11-01T15:23:46.657Z,9.80
2022-11-01T15:26:15.650Z,11.52
2022-11-01T15:28:45.073Z,7.13
2022-11-01T15:31:11.737Z,11.23
2022-11-01T15:33:38.156Z,11.18
2022-11-01T15:36:17.792Z,14.07
2022-11-01T15:38:50.492Z,12.30
2022-11-01T15:41:26.865Z,7.80
2022-11-01T15:43:54.273Z,14.57
2022-11-01T15:46:21.678Z,10.68
2022-11-01T15:48:48.342Z,7.00
2022-11-01T15:51:20.889Z,10.48
2022-11-01T15:53:48.498Z,12.15
2022-11-01T15:56:18.548Z,8.65
2022-11-01T15:58:50.338Z,10.80
2022-11-01T16:01:18.931Z,7.70
2022-11-01T16:03:56.284Z,10.60
2022-11-01T16:06:22.628Z,7.22
2022-11-01T16:08:51.311Z,9.07
2022-11-01T16:11:20.821Z,11.05
2022-11-01T16:13:48.364Z,6.70
2022-11-01T16:16:15.038Z,11.82
2022-11-01T16:18:43.415Z,10.02
2022-11-01T16:21:19.391Z,14.32
2022-11-01T16:24:02.827Z,8.10
2022-11-01T16:31:28.976Z,8.85
2022-11-01T16:33:56.458Z,8.20
2022-11-01T16:36:33.868Z,11.18
2022-11-01T16:39:00.228Z,11.73
2022-11-01T16:41:36.451Z,9.65
2022-11-01T16:44:14.229Z,9.30
2022-11-01T16:46:40.614Z,8.25
2022-11-01T16:49:26.266Z,9.18
2022-11-01T16:51:53.944Z,8.63
2022-11-01T16:54:20.266Z,10.57
2022-11-01T16:56:48.254Z,9.48
2022-11-01T16:59:28.481Z,7.90
2022-11-01T17:01:55.687Z,10.90
2022-11-01T17:04:22.718Z,9.70
2022-11-01T17:06:49.875Z,9.35
2022-11-01T17:09:17.726Z,9.48
2022-11-01T17:11:50.747Z,8.63
2022-11-01T17:14:17.966Z,12.18
2022-11-01T17:16:45.272Z,7.82
2022-11-01T17:19:17.715Z,7.55
2022-11-01T17:21:44.281Z,13.45
2022-11-01T17:24:10.701Z,10.23
2022-11-01T17:26:37.482Z,7.53
2022-11-01T17:29:03.824Z,6.85
2022-11-01T17:31:30.483Z,10.00
2022-11-01T17:33:57.223Z,4.78
2022-11-01T17:36:23.527Z,10.10
2022-11-01T17:38:50.316Z,6.22
2022-11-01T17:41:18.313Z,6.20
2022-11-01T17:43:44.671Z,7.63
2022-11-01T17:46:13.592Z,6.10
2022-11-01T17:48:39.922Z,7.57
2022-11-01T17:51:06.725Z,6.50
2022-11-01T17:53:33.021Z,4.70
2022-11-01T17:55:59.364Z,6.13
2022-11-01T17:58:25.710Z,10.52
2022-11-01T18:00:52.291Z,6.65
2022-11-01T18:03:18.703Z,7.65
2022-11-01T18:05:45.078Z,15.95
2022-11-01T18:08:24.672Z,7.22
2022-11-01T18:11:01.323Z,5.13
2022-11-01T18:13:33.560Z,9.20
2022-11-01T18:16:00.125Z,6.13
2022-11-01T18:18:32.553Z,9.80
2022-11-01T18:21:05.110Z,6.95
2022-11-01T18:23:31.841Z,4.68
2022-11-01T18:25:58.265Z,5.57
2022-11-01T18:28:31.749Z,5.82
2022-11-01T18:31:02.576Z,5.45
2022-11-01T18:33:55.935Z,5.47
2022-11-01T18:36:30.817Z,5.95
2022-11-01T18:39:03.850Z,6.90
2022-11-01T18:41:30.167Z,2.92
2022-11-01T18:43:56.558Z,6.45
2022-11-01T18:46:30.497Z,6.13
2022-11-01T18:49:09.284Z,4.50
2022-11-01T18:51:36.872Z,5.30
2022-11-01T18:54:09.019Z,6.95
2022-11-01T18:56:39.583Z,5.00
2022-11-01T18:59:20.656Z,5.75
2022-11-01T19:01:51.113Z,3.92
2022-11-01T19:04:20.607Z,5.65
2022-11-01T19:06:47.000Z,3.55
2022-11-01T19:09:19.711Z,5.45
2022-11-01T19:11:46.122Z,6.78
2022-11-01T19:14:15.567Z,5.65
2022-11-01T19:16:42.384Z,6.15
2022-11-01T19:19:14.235Z,3.78
2022-11-01T19:21:40.574Z,4.07
2022-11-01T19:24:16.920Z,9.27
2022-11-01T19:26:43.301Z,5.65
2022-11-01T19:29:12.830Z,6.65
2022-11-01T19:31:39.682Z,3.78
2022-11-01T19:34:14.651Z,3.53
2022-11-01T19:36:42.020Z,5.75
2022-11-01T19:39:25.429Z,6.00
2022-11-01T19:41:53.078Z,4.53
2022-11-01T19:44:20.885Z,4.53
2022-11-01T19:46:48.015Z,6.47
2022-11-01T19:49:23.584Z,4.80
2022-11-01T19:52:13.251Z,3.38
2022-11-01T19:54:41.234Z,7.22
2022-11-01T19:57:27.836Z,5.75
2022-11-01T19:59:56.090Z,6.90
2022-11-01T20:02:22.984Z,3.58
2022-11-01T20:04:54.274Z,6.55
2022-11-01T20:07:21.257Z,8.70
2022-11-01T20:09:54.769Z,3.88
2022-11-01T20:12:24.780Z,7.43
2022-11-01T20:14:51.263Z,8.63
2022-11-01T20:17:17.582Z,4.72
2022-11-01T20:19:45.179Z,5.57
2022-11-01T20:22:11.521Z,6.63
2022-11-01T20:24:37.955Z,3.42
2022-11-01T20:27:04.395Z,4.75
2022-11-01T20:29:30.718Z,5.55
2022-11-01T20:31:57.101Z,3.70
2022-11-01T20:34:25.617Z,9.60
2022-11-01T20:37:14.943Z,4.65
2022-11-01T20:39:38.322Z,5.22
2022-11-01T20:42:04.720Z,5.05
2022-11-01T20:44:31.045Z,4.25
2022-11-01T20:46:57.393Z,4.80
2022-11-01T20:49:23.703Z,4.15
2022-11-01T20:51:50.063Z,4.63
2022-11-01T20:54:18.029Z,4.47
2022-11-01T20:56:44.688Z,5.00
2022-11-01T20:59:11.140Z,7.97
2022-11-01T21:01:38.159Z,2.90
2022-11-01T21:04:09.762Z,6.43
2022-11-01T21:06:36.854Z,4.90
2022-11-01T21:09:07.741Z,5.85
2022-11-01T21:11:46.948Z,5.32
2022-11-01T21:14:15.330Z,4.43
2022-11-01T21:16:41.770Z,3.45
2022-11-01T21:19:13.656Z,5.50
2022-11-01T21:21:46.529Z,5.43
2022-11-01T21:24:27.431Z,5.25
2022-11-01T21:26:58.569Z,8.98
2022-11-01T21:29:28.925Z,3.67
2022-11-01T21:31:55.662Z,7.00
2022-11-01T21:34:28.941Z,4.22
2022-11-01T21:36:56.372Z,8.90
2022-11-01T21:39:23.460Z,5.60
2022-11-01T21:41:51.273Z,6.90
2022-11-01T21:44:25.085Z,8.40
2022-11-01T21:47:00.797Z,9.15
2022-11-01T21:49:28.404Z,9.35
2022-11-01T21:51:55.908Z,6.22
2022-11-01T21:54:22.489Z,5.05
2022-11-01T21:56:48.905Z,4.75
2022-11-01T21:59:15.441Z,5.55
2022-11-01T22:01:43.930Z,6.15
2022-11-01T22:04:10.585Z,3.97
2022-11-01T22:06:36.937Z,5.22
2022-11-01T22:09:03.520Z,5.25
2022-11-01T22:11:32.628Z,5.88
2022-11-01T22:13:59.246Z,5.68
2022-11-01T22:16:25.765Z,8.57
2022-11-01T22:18:52.179Z,4.47
2022-11-01T22:21:18.567Z,4.53
2022-11-01T22:23:44.966Z,5.78
2022-11-01T22:26:11.457Z,8.43
2022-11-01T22:28:37.996Z,4.80
2022-11-01T22:31:04.633Z,10.95
2022-11-01T22:33:34.464Z,6.32
2022-11-01T22:36:01.339Z,6.97
2022-11-01T22:38:34.467Z,4.47
2022-11-01T22:41:33.031Z,5.50
2022-11-01T22:44:04.405Z,3.97
2022-11-01T22:46:36.289Z,4.78
2022-11-01T22:49:09.844Z,5.93
2022-11-01T22:51:40.649Z,5.90
2022-11-01T22:54:25.954Z,4.43
2022-11-01T22:57:21.738Z,4.30
2022-11-01T22:59:59.729Z,9.50
2022-11-01T23:02:29.338Z,7.38
2022-11-01T23:05:16.859Z,5.28
2022-11-01T23:07:50.505Z,7.70
2022-11-01T23:10:27.707Z,8.68
2022-11-01T23:13:31.584Z,6.63
2022-11-01T23:16:02.700Z,5.03
2022-11-01T23:18:31.948Z,9.35
2022-11-01T23:21:08.286Z,6.78
2022-11-01T23:23:40.440Z,8.13
2022-11-01T23:26:06.827Z,5.03
2022-11-01T23:28:35.143Z,6.97
2022-11-01T23:31:04.103Z,10.70
2022-11-01T23:33:43.573Z,3.45
2022-11-01T23:36:17.838Z,6.38
2022-11-01T23:38:46.344Z,6.05
2022-11-01T23:41:33.206Z,5.93
2022-11-01T23:44:01.235Z,5.88
2022-11-01T23:46:27.955Z,6.00
2022-11-01T23:49:00.061Z,6.28
2022-11-01T23:51:27.886Z,5.70
2022-11-01T23:53:54.763Z,9.05
2022-11-01T23:56:22.019Z,7.28
2022-11-01T23:58:50.779Z,3.30
